sensor_id;sensor_type;location;lat;lon;timestamp;temperature;humidity
4324;DHT22;2175;51.018;6.994;2022-07-29T00:00:13;19.60;99.90
4324;DHT22;2175;51.018;6.994;2022-07-29T00:02:38;19.60;99.90
4324;DHT22;2175;51.018;6.994;2022-07-29T00:05:05;19.50;99.90
4324;DHT22;2175;51.018;6.994;2022-07-29T00:07:31;19.50;99.90
4324;DHT22;2175;51.018;6.994;2022-07-29T00:09:56;19.50;99.90
4324;DHT22;2175;51.018;6.994;2022-07-29T00:12:24;19.50;99.90
4324;DHT22;2175;51.018;6.994;2022-07-29T00:14:49;19.50;99.90
4324;DHT22;2175;51.018;6.994;2022-07-29T00:17:15;19.50;99.90
4324;DHT22;2175;51.018;6.994;2022-07-29T00:19:41;19.50;99.90
4324;DHT22;2175;51.018;6.994;2022-07-29T00:22:06;19.60;99.90
4324;DHT22;2175;51.018;6.994;2022-07-29T00:24:32;19.60;99.90
4324;DHT22;2175;51.018;6.994;2022-07-29T00:26:58;19.60;99.90
4324;DHT22;2175;51.018;6.994;2022-07-29T00:29:23;19.60;99.90
4324;DHT22;2175;51.018;6.994;2022-07-29T00:31:49;19.60;99.90
4324;DHT22;2175;51.018;6.994;2022-07-29T00:34:15;19.50;99.90
4324;DHT22;2175;51.018;6.994;2022-07-29T00:36:59;19.60;99.90
4324;DHT22;2175;51.018;6.994;2022-07-29T00:39:24;19.60;99.90
4324;DHT22;2175;51.018;6.994;2022-07-29T00:41:50;19.60;99.90
4324;DHT22;2175;51.018;6.994;2022-07-29T00:44:16;19.50;99.90
4324;DHT22;2175;51.018;6.994;2022-07-29T00:46:41;19.50;99.90
4324;DHT22;2175;51.018;6.994;2022-07-29T00:49:07;19.50;99.90
4324;DHT22;2175;51.018;6.994;2022-07-29T00:51:35;19.40;99.90
4324;DHT22;2175;51.018;6.994;2022-07-29T00:54:02;19.40;99.90
4324;DHT22;2175;51.018;6.994;2022-07-29T00:56:30;19.40;99.90
4324;DHT22;2175;51.018;6.994;2022-07-29T00:58:57;19.30;99.90
4324;DHT22;2175;51.018;6.994;2022-07-29T01:01:23;19.40;99.90
4324;DHT22;2175;51.018;6.994;2022-07-29T01:03:48;19.30;99.90
4324;DHT22;2175;51.018;6.994;2022-07-29T01:06:16;19.30;99.90
4324;DHT22;2175;51.018;6.994;2022-07-29T01:08:42;19.30;99.90
4324;DHT22;2175;51.018;6.994;2022-07-29T01:11:09;19.20;99.90
4324;DHT22;2175;51.018;6.994;2022-07-29T01:13:34;19.20;99.90
4324;DHT22;2175;51.018;6.994;2022-07-29T01:16:13;19.10;99.90
4324;DHT22;2175;51.018;6.994;2022-07-29T01:18:45;19.10;99.90
4324;DHT22;2175;51.018;6.994;2022-07-29T01:27:13;18.90;99.90
4324;DHT22;2175;51.018;6.994;2022-07-29T01:29:49;18.90;99.90
4324;DHT22;2175;51.018;6.994;2022-07-29T01:32:25;18.80;99.90
4324;DHT22;2175;51.018;6.994;2022-07-29T01:40:23;18.90;99.90
4324;DHT22;2175;51.018;6.994;2022-07-29T01:42:52;18.90;99.90
4324;DHT22;2175;51.018;6.994;2022-07-29T01:45:37;18.90;99.90
4324;DHT22;2175;51.018;6.994;2022-07-29T01:51:14;18.80;99.90
4324;DHT22;2175;51.018;6.994;2022-07-29T01:53:59;18.80;99.90
4324;DHT22;2175;51.018;6.994;2022-07-29T01:56:29;18.80;99.90
4324;DHT22;2175;51.018;6.994;2022-07-29T01:58:57;18.80;99.90
4324;DHT22;2175;51.018;6.994;2022-07-29T02:01:24;18.80;99.90
4324;DHT22;2175;51.018;6.994;2022-07-29T02:03:50;18.80;99.90
4324;DHT22;2175;51.018;6.994;2022-07-29T02:06:19;18.80;99.90
4324;DHT22;2175;51.018;6.994;2022-07-29T02:08:47;18.60;99.90
4324;DHT22;2175;51.018;6.994;2022-07-29T02:11:14;18.70;99.90
4324;DHT22;2175;51.018;6.994;2022-07-29T02:13:41;18.50;99.90
4324;DHT22;2175;51.018;6.994;2022-07-29T02:16:08;18.60;99.90
4324;DHT22;2175;51.018;6.994;2022-07-29T02:18:36;18.60;99.90
4324;DHT22;2175;51.018;6.994;2022-07-29T02:21:03;18.70;99.90
4324;DHT22;2175;51.018;6.994;2022-07-29T02:23:30;18.70;99.90
4324;DHT22;2175;51.018;6.994;2022-07-29T02:25:57;18.70;99.90
4324;DHT22;2175;51.018;6.994;2022-07-29T02:28:28;18.70;99.90
4324;DHT22;2175;51.018;6.994;2022-07-29T02:30:58;18.70;99.90
4324;DHT22;2175;51.018;6.994;2022-07-29T02:33:25;18.70;99.90
4324;DHT22;2175;51.018;6.994;2022-07-29T02:35:52;18.60;99.90
4324;DHT22;2175;51.018;6.994;2022-07-29T02:38:20;18.60;99.90
4324;DHT22;2175;51.018;6.994;2022-07-29T02:41:11;18.60;99.90
4324;DHT22;2175;51.018;6.994;2022-07-29T02:43:38;18.50;99.90
4324;DHT22;2175;51.018;6.994;2022-07-29T02:46:05;18.40;99.90
4324;DHT22;2175;51.018;6.994;2022-07-29T02:48:37;18.40;99.90
4324;DHT22;2175;51.018;6.994;2022-07-29T02:51:19;18.40;99.90
4324;DHT22;2175;51.018;6.994;2022-07-29T02:53:51;18.40;99.90
4324;DHT22;2175;51.018;6.994;2022-07-29T02:56:20;18.40;99.90
4324;DHT22;2175;51.018;6.994;2022-07-29T02:58:56;18.40;99.90
4324;DHT22;2175;51.018;6.994;2022-07-29T03:01:25;18.30;99.90
4324;DHT22;2175;51.018;6.994;2022-07-29T03:03:55;18.20;99.90
4324;DHT22;2175;51.018;6.994;2022-07-29T03:06:24;18.30;99.90
4324;DHT22;2175;51.018;6.994;2022-07-29T03:08:51;18.30;99.90
4324;DHT22;2175;51.018;6.994;2022-07-29T03:11:17;18.40;99.90
4324;DHT22;2175;51.018;6.994;2022-07-29T03:13:44;18.40;99.90
4324;DHT22;2175;51.018;6.994;2022-07-29T03:16:10;18.40;99.90
4324;DHT22;2175;51.018;6.994;2022-07-29T03:18:37;18.40;99.90
4324;DHT22;2175;51.018;6.994;2022-07-29T03:21:03;18.50;99.90
4324;DHT22;2175;51.018;6.994;2022-07-29T03:23:29;18.50;99.90
4324;DHT22;2175;51.018;6.994;2022-07-29T03:25:55;18.50;99.90
4324;DHT22;2175;51.018;6.994;2022-07-29T03:28:21;18.60;99.90
4324;DHT22;2175;51.018;6.994;2022-07-29T03:33:15;18.80;99.90
4324;DHT22;2175;51.018;6.994;2022-07-29T03:35:41;19.00;99.90
4324;DHT22;2175;51.018;6.994;2022-07-29T03:38:07;19.10;99.90
4324;DHT22;2175;51.018;6.994;2022-07-29T03:40:40;19.20;99.90
4324;DHT22;2175;51.018;6.994;2022-07-29T03:43:09;19.20;99.90
4324;DHT22;2175;51.018;6.994;2022-07-29T03:45:35;19.30;99.90
4324;DHT22;2175;51.018;6.994;2022-07-29T03:48:11;19.30;99.90
4324;DHT22;2175;51.018;6.994;2022-07-29T03:50:38;19.30;99.90
4324;DHT22;2175;51.018;6.994;2022-07-29T03:53:03;19.30;99.90
4324;DHT22;2175;51.018;6.994;2022-07-29T03:55:33;19.30;99.90
4324;DHT22;2175;51.018;6.994;2022-07-29T03:58:01;19.30;99.90
4324;DHT22;2175;51.018;6.994;2022-07-29T04:00:28;19.30;99.90
4324;DHT22;2175;51.018;6.994;2022-07-29T04:02:56;19.30;99.90
4324;DHT22;2175;51.018;6.994;2022-07-29T04:05:21;19.20;99.90
4324;DHT22;2175;51.018;6.994;2022-07-29T04:07:47;19.20;99.90
4324;DHT22;2175;51.018;6.994;2022-07-29T04:10:14;19.20;99.90
4324;DHT22;2175;51.018;6.994;2022-07-29T04:12:41;19.30;99.90
4324;DHT22;2175;51.018;6.994;2022-07-29T04:15:07;19.30;99.90
4324;DHT22;2175;51.018;6.994;2022-07-29T04:17:33;19.20;99.90
4324;DHT22;2175;51.018;6.994;2022-07-29T04:19:58;19.20;99.90
4324;DHT22;2175;51.018;6.994;2022-07-29T04:22:24;19.20;99.90
4324;DHT22;2175;51.018;6.994;2022-07-29T04:24:50;19.20;99.90
4324;DHT22;2175;51.018;6.994;2022-07-29T04:27:15;19.20;99.90
4324;DHT22;2175;51.018;6.994;2022-07-29T04:29:41;19.10;99.90
4324;DHT22;2175;51.018;6.994;2022-07-29T04:32:07;19.10;99.90
4324;DHT22;2175;51.018;6.994;2022-07-29T04:34:32;19.10;99.90
4324;DHT22;2175;51.018;6.994;2022-07-29T04:36:58;19.10;99.90
4324;DHT22;2175;51.018;6.994;2022-07-29T04:39:44;19.00;99.90
4324;DHT22;2175;51.018;6.994;2022-07-29T04:42:09;19.00;99.90
4324;DHT22;2175;51.018;6.994;2022-07-29T04:44:35;19.00;99.90
4324;DHT22;2175;51.018;6.994;2022-07-29T04:47:01;18.90;99.90
4324;DHT22;2175;51.018;6.994;2022-07-29T04:49:26;18.90;99.90
4324;DHT22;2175;51.018;6.994;2022-07-29T04:51:52;18.90;99.90
4324;DHT22;2175;51.018;6.994;2022-07-29T04:54:17;18.90;99.90
4324;DHT22;2175;51.018;6.994;2022-07-29T04:56:43;18.90;99.90
4324;DHT22;2175;51.018;6.994;2022-07-29T04:59:09;18.90;99.90
4324;DHT22;2175;51.018;6.994;2022-07-29T05:01:34;18.90;99.90
4324;DHT22;2175;51.018;6.994;2022-07-29T05:04:00;18.80;99.90
4324;DHT22;2175;51.018;6.994;2022-07-29T05:06:25;18.90;99.90
4324;DHT22;2175;51.018;6.994;2022-07-29T05:08:51;18.90;99.90
4324;DHT22;2175;51.018;6.994;2022-07-29T05:11:17;19.00;99.90
4324;DHT22;2175;51.018;6.994;2022-07-29T05:13:42;19.00;99.90
4324;DHT22;2175;51.018;6.994;2022-07-29T05:16:08;19.00;99.90
4324;DHT22;2175;51.018;6.994;2022-07-29T05:18:34;19.00;99.90
4324;DHT22;2175;51.018;6.994;2022-07-29T05:21:00;19.00;99.90
4324;DHT22;2175;51.018;6.994;2022-07-29T05:23:25;19.10;99.90
4324;DHT22;2175;51.018;6.994;2022-07-29T05:25:51;19.00;99.90
4324;DHT22;2175;51.018;6.994;2022-07-29T05:28:16;19.00;99.90
4324;DHT22;2175;51.018;6.994;2022-07-29T05:30:42;19.10;99.90
4324;DHT22;2175;51.018;6.994;2022-07-29T05:33:10;19.10;99.90
4324;DHT22;2175;51.018;6.994;2022-07-29T05:35:36;19.10;99.90
4324;DHT22;2175;51.018;6.994;2022-07-29T05:38:03;19.20;99.90
4324;DHT22;2175;51.018;6.994;2022-07-29T05:40:28;19.20;99.90
4324;DHT22;2175;51.018;6.994;2022-07-29T05:42:54;19.20;99.90
4324;DHT22;2175;51.018;6.994;2022-07-29T05:45:20;19.30;99.90
4324;DHT22;2175;51.018;6.994;2022-07-29T05:47:45;19.30;99.90
4324;DHT22;2175;51.018;6.994;2022-07-29T05:50:12;19.30;99.90
4324;DHT22;2175;51.018;6.994;2022-07-29T05:52:38;19.30;99.90
4324;DHT22;2175;51.018;6.994;2022-07-29T05:55:04;19.20;99.90
4324;DHT22;2175;51.018;6.994;2022-07-29T05:57:31;19.20;99.90
4324;DHT22;2175;51.018;6.994;2022-07-29T05:59:56;19.20;99.90
4324;DHT22;2175;51.018;6.994;2022-07-29T06:02:22;19.30;99.90
4324;DHT22;2175;51.018;6.994;2022-07-29T06:04:48;19.30;99.90
4324;DHT22;2175;51.018;6.994;2022-07-29T06:07:14;19.40;99.90
4324;DHT22;2175;51.018;6.994;2022-07-29T06:09:41;19.30;99.90
4324;DHT22;2175;51.018;6.994;2022-07-29T06:12:07;19.40;99.90
4324;DHT22;2175;51.018;6.994;2022-07-29T06:14:33;19.40;99.90
4324;DHT22;2175;51.018;6.994;2022-07-29T06:16:59;19.40;99.90
4324;DHT22;2175;51.018;6.994;2022-07-29T06:19:25;19.40;99.90
4324;DHT22;2175;51.018;6.994;2022-07-29T06:21:51;19.40;99.90
4324;DHT22;2175;51.018;6.994;2022-07-29T06:24:17;19.50;99.90
4324;DHT22;2175;51.018;6.994;2022-07-29T06:26:42;19.60;99.90
4324;DHT22;2175;51.018;6.994;2022-07-29T06:29:09;19.70;99.90
4324;DHT22;2175;51.018;6.994;2022-07-29T06:31:40;19.60;99.90
4324;DHT22;2175;51.018;6.994;2022-07-29T06:34:06;19.60;99.90
4324;DHT22;2175;51.018;6.994;2022-07-29T06:36:37;19.70;99.90
4324;DHT22;2175;51.018;6.994;2022-07-29T06:39:08;19.80;99.90
4324;DHT22;2175;51.018;6.994;2022-07-29T06:41:34;19.80;99.90
4324;DHT22;2175;51.018;6.994;2022-07-29T06:44:00;19.80;99.90
4324;DHT22;2175;51.018;6.994;2022-07-29T06:46:26;19.80;99.90
4324;DHT22;2175;51.018;6.994;2022-07-29T06:48:52;19.80;99.90
4324;DHT22;2175;51.018;6.994;2022-07-29T06:51:18;19.80;99.90
4324;DHT22;2175;51.018;6.994;2022-07-29T06:53:44;19.80;99.90
4324;DHT22;2175;51.018;6.994;2022-07-29T06:56:10;19.80;99.90
4324;DHT22;2175;51.018;6.994;2022-07-29T06:58:38;19.80;99.90
4324;DHT22;2175;51.018;6.994;2022-07-29T07:01:05;19.80;99.90
4324;DHT22;2175;51.018;6.994;2022-07-29T07:03:31;19.70;99.90
4324;DHT22;2175;51.018;6.994;2022-07-29T07:05:57;19.70;99.90
4324;DHT22;2175;51.018;6.994;2022-07-29T07:08:23;19.60;99.90
4324;DHT22;2175;51.018;6.994;2022-07-29T07:10:49;19.60;99.90
4324;DHT22;2175;51.018;6.994;2022-07-29T07:13:15;19.60;99.90
4324;DHT22;2175;51.018;6.994;2022-07-29T07:15:43;19.60;99.90
4324;DHT22;2175;51.018;6.994;2022-07-29T07:18:09;19.60;99.90
4324;DHT22;2175;51.018;6.994;2022-07-29T07:20:36;19.60;99.90
4324;DHT22;2175;51.018;6.994;2022-07-29T07:23:02;19.70;99.90
4324;DHT22;2175;51.018;6.994;2022-07-29T07:25:28;19.60;99.90
4324;DHT22;2175;51.018;6.994;2022-07-29T07:27:53;19.50;99.90
4324;DHT22;2175;51.018;6.994;2022-07-29T07:30:19;19.50;99.90
4324;DHT22;2175;51.018;6.994;2022-07-29T07:32:45;19.50;99.90
4324;DHT22;2175;51.018;6.994;2022-07-29T07:35:11;19.60;99.90
4324;DHT22;2175;51.018;6.994;2022-07-29T07:37:37;19.70;99.90
4324;DHT22;2175;51.018;6.994;2022-07-29T07:40:04;19.70;99.90
4324;DHT22;2175;51.018;6.994;2022-07-29T07:42:29;19.70;99.90
4324;DHT22;2175;51.018;6.994;2022-07-29T07:44:55;19.60;99.90
4324;DHT22;2175;51.018;6.994;2022-07-29T07:47:21;19.50;99.90
4324;DHT22;2175;51.018;6.994;2022-07-29T07:49:49;19.30;99.90
4324;DHT22;2175;51.018;6.994;2022-07-29T07:52:16;19.30;99.90
4324;DHT22;2175;51.018;6.994;2022-07-29T07:54:42;19.30;99.90
4324;DHT22;2175;51.018;6.994;2022-07-29T07:57:11;19.40;99.90
4324;DHT22;2175;51.018;6.994;2022-07-29T07:59:37;19.50;99.90
4324;DHT22;2175;51.018;6.994;2022-07-29T08:02:03;19.60;99.90
4324;DHT22;2175;51.018;6.994;2022-07-29T08:04:29;19.70;99.90
4324;DHT22;2175;51.018;6.994;2022-07-29T08:06:56;19.70;99.90
4324;DHT22;2175;51.018;6.994;2022-07-29T08:09:23;19.80;99.90
4324;DHT22;2175;51.018;6.994;2022-07-29T08:11:49;19.90;99.90
4324;DHT22;2175;51.018;6.994;2022-07-29T08:14:14;19.90;99.90
4324;DHT22;2175;51.018;6.994;2022-07-29T08:16:40;19.90;99.90
4324;DHT22;2175;51.018;6.994;2022-07-29T08:19:07;19.90;99.90
4324;DHT22;2175;51.018;6.994;2022-07-29T08:21:33;19.90;99.90
4324;DHT22;2175;51.018;6.994;2022-07-29T08:23:58;19.90;99.90
4324;DHT22;2175;51.018;6.994;2022-07-29T08:26:43;19.90;99.90
4324;DHT22;2175;51.018;6.994;2022-07-29T08:29:09;19.90;99.90
4324;DHT22;2175;51.018;6.994;2022-07-29T08:31:36;19.80;99.90
4324;DHT22;2175;51.018;6.994;2022-07-29T08:34:03;19.70;99.90
4324;DHT22;2175;51.018;6.994;2022-07-29T08:36:29;19.60;99.90
4324;DHT22;2175;51.018;6.994;2022-07-29T08:38:55;19.60;99.90
4324;DHT22;2175;51.018;6.994;2022-07-29T08:41:21;19.60;99.90
4324;DHT22;2175;51.018;6.994;2022-07-29T08:43:48;19.60;99.90
4324;DHT22;2175;51.018;6.994;2022-07-29T08:46:15;19.50;99.90
4324;DHT22;2175;51.018;6.994;2022-07-29T08:48:41;19.50;99.90
4324;DHT22;2175;51.018;6.994;2022-07-29T08:51:07;19.40;99.90
4324;DHT22;2175;51.018;6.994;2022-07-29T08:53:33;19.40;99.90
4324;DHT22;2175;51.018;6.994;2022-07-29T08:55:59;19.50;99.90
4324;DHT22;2175;51.018;6.994;2022-07-29T08:58:26;19.50;99.90
4324;DHT22;2175;51.018;6.994;2022-07-29T09:00:57;19.60;99.90
4324;DHT22;2175;51.018;6.994;2022-07-29T09:03:25;19.60;99.90
4324;DHT22;2175;51.018;6.994;2022-07-29T09:05:53;19.60;99.90
4324;DHT22;2175;51.018;6.994;2022-07-29T09:08:19;19.70;99.90
4324;DHT22;2175;51.018;6.994;2022-07-29T09:10:45;19.80;99.90
4324;DHT22;2175;51.018;6.994;2022-07-29T09:13:11;19.90;99.90
4324;DHT22;2175;51.018;6.994;2022-07-29T09:15:36;19.90;99.90
4324;DHT22;2175;51.018;6.994;2022-07-29T09:18:02;20.10;99.90
4324;DHT22;2175;51.018;6.994;2022-07-29T09:20:28;20.10;99.90
4324;DHT22;2175;51.018;6.994;2022-07-29T09:23:13;20.20;99.90
4324;DHT22;2175;51.018;6.994;2022-07-29T09:25:40;20.30;99.90
4324;DHT22;2175;51.018;6.994;2022-07-29T09:28:11;20.30;99.90
4324;DHT22;2175;51.018;6.994;2022-07-29T09:30:57;20.50;99.90
4324;DHT22;2175;51.018;6.994;2022-07-29T09:33:31;20.50;99.90
4324;DHT22;2175;51.018;6.994;2022-07-29T09:36:05;20.60;99.90
4324;DHT22;2175;51.018;6.994;2022-07-29T09:38:32;20.50;99.90
4324;DHT22;2175;51.018;6.994;2022-07-29T09:41:02;20.50;99.90
4324;DHT22;2175;51.018;6.994;2022-07-29T09:43:27;20.50;99.90
4324;DHT22;2175;51.018;6.994;2022-07-29T09:45:54;20.60;99.90
4324;DHT22;2175;51.018;6.994;2022-07-29T09:48:24;20.50;99.90
4324;DHT22;2175;51.018;6.994;2022-07-29T09:50:50;20.60;99.90
4324;DHT22;2175;51.018;6.994;2022-07-29T09:53:34;20.60;99.90
4324;DHT22;2175;51.018;6.994;2022-07-29T09:56:01;20.70;99.90
4324;DHT22;2175;51.018;6.994;2022-07-29T09:58:27;20.80;99.90
4324;DHT22;2175;51.018;6.994;2022-07-29T10:00:53;20.90;99.90
4324;DHT22;2175;51.018;6.994;2022-07-29T10:03:21;21.00;99.90
4324;DHT22;2175;51.018;6.994;2022-07-29T10:06:10;21.10;99.90
4324;DHT22;2175;51.018;6.994;2022-07-29T10:08:37;21.20;99.90
4324;DHT22;2175;51.018;6.994;2022-07-29T10:13:36;21.00;99.90
4324;DHT22;2175;51.018;6.994;2022-07-29T10:16:12;21.00;99.90
4324;DHT22;2175;51.018;6.994;2022-07-29T10:29:02;21.00;99.90
4324;DHT22;2175;51.018;6.994;2022-07-29T10:31:36;21.00;99.90
4324;DHT22;2175;51.018;6.994;2022-07-29T10:34:15;21.00;99.90
4324;DHT22;2175;51.018;6.994;2022-07-29T10:37:03;21.10;99.90
4324;DHT22;2175;51.018;6.994;2022-07-29T10:42:55;21.30;99.90
4324;DHT22;2175;51.018;6.994;2022-07-29T10:45:25;21.50;99.90
4324;DHT22;2175;51.018;6.994;2022-07-29T10:48:03;21.60;99.90
4324;DHT22;2175;51.018;6.994;2022-07-29T10:53:20;21.70;99.90
4324;DHT22;2175;51.018;6.994;2022-07-29T10:55:46;21.90;99.90
4324;DHT22;2175;51.018;6.994;2022-07-29T10:58:21;22.00;99.90
4324;DHT22;2175;51.018;6.994;2022-07-29T11:00:50;22.00;99.90
4324;DHT22;2175;51.018;6.994;2022-07-29T11:03:44;22.10;99.90
4324;DHT22;2175;51.018;6.994;2022-07-29T11:06:14;22.30;99.90
4324;DHT22;2175;51.018;6.994;2022-07-29T11:08:40;22.40;99.90
4324;DHT22;2175;51.018;6.994;2022-07-29T11:13:45;22.90;99.90
4324;DHT22;2175;51.018;6.994;2022-07-29T11:16:16;23.20;99.90
4324;DHT22;2175;51.018;6.994;2022-07-29T11:21:37;23.70;99.90
4324;DHT22;2175;51.018;6.994;2022-07-29T11:26:43;23.40;99.90
4324;DHT22;2175;51.018;6.994;2022-07-29T11:29:36;23.20;99.90
4324;DHT22;2175;51.018;6.994;2022-07-29T11:32:14;23.10;99.90
4324;DHT22;2175;51.018;6.994;2022-07-29T11:34:41;23.10;99.90
4324;DHT22;2175;51.018;6.994;2022-07-29T11:42:37;23.60;99.90
4324;DHT22;2175;51.018;6.994;2022-07-29T11:45:08;23.60;99.90
4324;DHT22;2175;51.018;6.994;2022-07-29T11:47:49;23.60;99.90
4324;DHT22;2175;51.018;6.994;2022-07-29T11:50:26;23.60;99.90
4324;DHT22;2175;51.018;6.994;2022-07-29T11:52:53;23.60;99.90
4324;DHT22;2175;51.018;6.994;2022-07-29T11:55:20;23.60;99.90
4324;DHT22;2175;51.018;6.994;2022-07-29T11:58:00;23.70;99.90
4324;DHT22;2175;51.018;6.994;2022-07-29T12:00:29;23.80;99.90
4324;DHT22;2175;51.018;6.994;2022-07-29T12:02:56;23.80;99.90
4324;DHT22;2175;51.018;6.994;2022-07-29T12:05:37;23.80;99.90
4324;DHT22;2175;51.018;6.994;2022-07-29T12:08:21;23.80;99.90
4324;DHT22;2175;51.018;6.994;2022-07-29T12:10:49;23.80;99.90
4324;DHT22;2175;51.018;6.994;2022-07-29T12:13:18;23.80;99.90
4324;DHT22;2175;51.018;6.994;2022-07-29T12:15:52;23.90;99.90
4324;DHT22;2175;51.018;6.994;2022-07-29T12:18:20;24.00;99.90
4324;DHT22;2175;51.018;6.994;2022-07-29T12:20:47;24.00;99.90
4324;DHT22;2175;51.018;6.994;2022-07-29T12:23:13;24.00;99.90
4324;DHT22;2175;51.018;6.994;2022-07-29T12:25:41;24.00;99.90
4324;DHT22;2175;51.018;6.994;2022-07-29T12:28:11;24.00;99.90
4324;DHT22;2175;51.018;6.994;2022-07-29T12:30:43;24.00;99.90
4324;DHT22;2175;51.018;6.994;2022-07-29T12:33:18;24.10;99.90
4324;DHT22;2175;51.018;6.994;2022-07-29T12:35:47;24.20;99.90
4324;DHT22;2175;51.018;6.994;2022-07-29T12:38:14;24.20;99.90
4324;DHT22;2175;51.018;6.994;2022-07-29T12:40:40;24.30;99.90
4324;DHT22;2175;51.018;6.994;2022-07-29T12:43:14;24.20;99.90
4324;DHT22;2175;51.018;6.994;2022-07-29T12:45:46;24.20;99.90
4324;DHT22;2175;51.018;6.994;2022-07-29T12:48:13;24.20;99.90
4324;DHT22;2175;51.018;6.994;2022-07-29T12:50:59;24.20;99.90
4324;DHT22;2175;51.018;6.994;2022-07-29T12:53:25;24.20;99.90
4324;DHT22;2175;51.018;6.994;2022-07-29T12:55:53;24.20;99.90
4324;DHT22;2175;51.018;6.994;2022-07-29T12:58:40;24.30;99.90
4324;DHT22;2175;51.018;6.994;2022-07-29T13:01:16;24.30;99.90
4324;DHT22;2175;51.018;6.994;2022-07-29T13:11:35;24.30;99.90
4324;DHT22;2175;51.018;6.994;2022-07-29T13:14:02;24.20;99.90
4324;DHT22;2175;51.018;6.994;2022-07-29T13:16:28;24.30;99.90
4324;DHT22;2175;51.018;6.994;2022-07-29T13:19:12;24.40;99.90
4324;DHT22;2175;51.018;6.994;2022-07-29T13:21:39;24.40;99.90
4324;DHT22;2175;51.018;6.994;2022-07-29T13:24:08;24.40;99.90
4324;DHT22;2175;51.018;6.994;2022-07-29T13:26:34;24.40;99.90
4324;DHT22;2175;51.018;6.994;2022-07-29T13:28:59;24.40;99.90
4324;DHT22;2175;51.018;6.994;2022-07-29T13:31:25;24.40;99.90
4324;DHT22;2175;51.018;6.994;2022-07-29T13:33:51;24.40;99.90
4324;DHT22;2175;51.018;6.994;2022-07-29T13:36:16;24.40;99.90
4324;DHT22;2175;51.018;6.994;2022-07-29T13:38:42;24.30;99.90
4324;DHT22;2175;51.018;6.994;2022-07-29T13:41:08;24.20;99.90
4324;DHT22;2175;51.018;6.994;2022-07-29T13:43:34;24.20;99.90
4324;DHT22;2175;51.018;6.994;2022-07-29T13:46:00;24.10;99.90
4324;DHT22;2175;51.018;6.994;2022-07-29T13:48:25;23.90;99.90
4324;DHT22;2175;51.018;6.994;2022-07-29T13:50:51;23.90;99.90
4324;DHT22;2175;51.018;6.994;2022-07-29T13:53:16;24.10;99.90
4324;DHT22;2175;51.018;6.994;2022-07-29T13:55:42;24.20;99.90
4324;DHT22;2175;51.018;6.994;2022-07-29T13:58:08;24.20;99.90
4324;DHT22;2175;51.018;6.994;2022-07-29T14:00:33;24.20;99.90
4324;DHT22;2175;51.018;6.994;2022-07-29T14:02:59;24.10;99.90
4324;DHT22;2175;51.018;6.994;2022-07-29T14:05:25;24.20;99.90
4324;DHT22;2175;51.018;6.994;2022-07-29T14:07:50;24.30;99.90
4324;DHT22;2175;51.018;6.994;2022-07-29T14:10:16;24.20;99.90
4324;DHT22;2175;51.018;6.994;2022-07-29T14:12:41;24.00;99.90
4324;DHT22;2175;51.018;6.994;2022-07-29T14:15:07;24.00;99.90
4324;DHT22;2175;51.018;6.994;2022-07-29T14:17:33;24.00;99.90
4324;DHT22;2175;51.018;6.994;2022-07-29T14:19:59;23.90;99.90
4324;DHT22;2175;51.018;6.994;2022-07-29T14:22:25;24.00;99.90
4324;DHT22;2175;51.018;6.994;2022-07-29T14:24:50;24.10;99.90
4324;DHT22;2175;51.018;6.994;2022-07-29T14:27:16;24.20;99.90
4324;DHT22;2175;51.018;6.994;2022-07-29T14:29:42;24.20;99.90
4324;DHT22;2175;51.018;6.994;2022-07-29T14:32:08;24.20;99.90
4324;DHT22;2175;51.018;6.994;2022-07-29T14:34:36;24.30;99.90
4324;DHT22;2175;51.018;6.994;2022-07-29T14:37:02;24.40;99.90
4324;DHT22;2175;51.018;6.994;2022-07-29T14:39:30;24.50;99.90
4324;DHT22;2175;51.018;6.994;2022-07-29T14:41:56;24.60;99.90
4324;DHT22;2175;51.018;6.994;2022-07-29T14:44:21;24.50;99.90
4324;DHT22;2175;51.018;6.994;2022-07-29T14:46:47;24.30;99.90
4324;DHT22;2175;51.018;6.994;2022-07-29T14:49:13;24.20;99.90
4324;DHT22;2175;51.018;6.994;2022-07-29T14:51:38;24.00;99.90
4324;DHT22;2175;51.018;6.994;2022-07-29T14:54:05;24.00;99.90
4324;DHT22;2175;51.018;6.994;2022-07-29T14:56:30;24.20;99.90
4324;DHT22;2175;51.018;6.994;2022-07-29T14:58:56;24.20;99.90
4324;DHT22;2175;51.018;6.994;2022-07-29T15:01:23;23.90;99.90
4324;DHT22;2175;51.018;6.994;2022-07-29T15:03:49;23.90;99.90
4324;DHT22;2175;51.018;6.994;2022-07-29T15:06:15;23.90;99.90
4324;DHT22;2175;51.018;6.994;2022-07-29T15:08:41;23.80;99.90
4324;DHT22;2175;51.018;6.994;2022-07-29T15:11:07;23.80;99.90
4324;DHT22;2175;51.018;6.994;2022-07-29T15:13:33;23.80;99.90
4324;DHT22;2175;51.018;6.994;2022-07-29T15:15:58;23.90;99.90
4324;DHT22;2175;51.018;6.994;2022-07-29T15:18:24;24.00;99.90
4324;DHT22;2175;51.018;6.994;2022-07-29T15:20:50;23.90;99.90
4324;DHT22;2175;51.018;6.994;2022-07-29T15:23:15;23.90;99.90
4324;DHT22;2175;51.018;6.994;2022-07-29T15:25:42;24.10;99.90
4324;DHT22;2175;51.018;6.994;2022-07-29T15:28:36;24.10;99.90
4324;DHT22;2175;51.018;6.994;2022-07-29T15:34:43;24.20;99.90
4324;DHT22;2175;51.018;6.994;2022-07-29T15:37:29;24.30;99.90
4324;DHT22;2175;51.018;6.994;2022-07-29T15:44:29;24.10;99.90
4324;DHT22;2175;51.018;6.994;2022-07-29T15:51:29;23.80;99.90
4324;DHT22;2175;51.018;6.994;2022-07-29T16:15:45;23.70;99.90
4324;DHT22;2175;51.018;6.994;2022-07-29T16:19:05;23.80;99.90
4324;DHT22;2175;51.018;6.994;2022-07-29T16:22:14;23.90;99.90
4324;DHT22;2175;51.018;6.994;2022-07-29T16:25:22;24.00;99.90
4324;DHT22;2175;51.018;6.994;2022-07-29T16:31:14;23.70;99.90
4324;DHT22;2175;51.018;6.994;2022-07-29T16:33:56;23.70;99.90
4324;DHT22;2175;51.018;6.994;2022-07-29T16:37:40;23.70;99.90
4324;DHT22;2175;51.018;6.994;2022-07-29T16:44:36;23.80;99.90
4324;DHT22;2175;51.018;6.994;2022-07-29T16:47:29;23.80;99.90
4324;DHT22;2175;51.018;6.994;2022-07-29T16:51:15;23.80;99.90
4324;DHT22;2175;51.018;6.994;2022-07-29T16:54:25;23.80;99.90
4324;DHT22;2175;51.018;6.994;2022-07-29T16:58:04;23.90;99.90
4324;DHT22;2175;51.018;6.994;2022-07-29T17:00:50;24.00;99.90
4324;DHT22;2175;51.018;6.994;2022-07-29T17:03:18;23.90;99.90
4324;DHT22;2175;51.018;6.994;2022-07-29T17:05:43;23.90;99.90
4324;DHT22;2175;51.018;6.994;2022-07-29T17:08:09;24.00;99.90
4324;DHT22;2175;51.018;6.994;2022-07-29T17:10:34;24.00;99.90
4324;DHT22;2175;51.018;6.994;2022-07-29T17:13:00;23.80;99.90
4324;DHT22;2175;51.018;6.994;2022-07-29T17:15:26;23.70;99.90
4324;DHT22;2175;51.018;6.994;2022-07-29T17:17:57;23.70;99.90
4324;DHT22;2175;51.018;6.994;2022-07-29T17:20:30;23.90;99.90
4324;DHT22;2175;51.018;6.994;2022-07-29T17:26:16;24.00;99.90
4324;DHT22;2175;51.018;6.994;2022-07-29T17:32:17;24.00;99.90
4324;DHT22;2175;51.018;6.994;2022-07-29T17:39:29;23.90;99.90
4324;DHT22;2175;51.018;6.994;2022-07-29T17:42:24;23.90;99.90
4324;DHT22;2175;51.018;6.994;2022-07-29T17:45:22;23.90;99.90
4324;DHT22;2175;51.018;6.994;2022-07-29T17:49:11;23.90;99.90
4324;DHT22;2175;51.018;6.994;2022-07-29T17:52:43;23.90;99.90
4324;DHT22;2175;51.018;6.994;2022-07-29T17:55:41;23.80;99.90
4324;DHT22;2175;51.018;6.994;2022-07-29T18:02:30;23.90;99.90
4324;DHT22;2175;51.018;6.994;2022-07-29T18:06:15;23.90;99.90
4324;DHT22;2175;51.018;6.994;2022-07-29T18:09:38;23.80;99.90
4324;DHT22;2175;51.018;6.994;2022-07-29T18:13:06;23.80;99.90
4324;DHT22;2175;51.018;6.994;2022-07-29T18:16:38;23.80;99.90
4324;DHT22;2175;51.018;6.994;2022-07-29T18:19:29;23.80;99.90